createdAt,value
2023-02-27T00:00:10.094Z,0
2023-02-27T00:01:10.091Z,0
2023-02-27T00:02:10.050Z,0
2023-02-27T00:03:10.083Z,0
2023-02-27T00:04:10.283Z,0
2023-02-27T00:05:10.044Z,0
2023-02-27T00:06:09.885Z,0
2023-02-27T00:07:09.865Z,0
2023-02-27T00:08:09.841Z,0
2023-02-27T00:09:10.114Z,0
2023-02-27T00:10:09.785Z,0
2023-02-27T00:11:09.678Z,0
2023-02-27T00:12:09.649Z,0
2023-02-27T00:13:09.609Z,0
2023-02-27T00:14:09.645Z,0
2023-02-27T00:15:09.670Z,0
2023-02-27T00:16:11.874Z,0
2023-02-27T00:17:09.464Z,0
2023-02-27T00:18:09.418Z,0
2023-02-27T00:19:09.399Z,0
2023-02-27T00:20:09.357Z,0
2023-02-27T00:21:09.064Z,0
2023-02-27T00:22:09.259Z,0
2023-02-27T00:23:09.247Z,0
2023-02-27T00:24:09.206Z,0
2023-02-27T00:25:09.174Z,0
2023-02-27T00:26:09.107Z,0
2023-02-27T00:27:09.081Z,0
2023-02-27T00:28:09.081Z,0
2023-02-27T00:29:08.992Z,0
2023-02-27T00:30:09.058Z,0
2023-02-27T00:31:09.742Z,0
2023-02-27T00:32:09.716Z,0
2023-02-27T00:33:08.829Z,0
2023-02-27T00:34:08.794Z,0
2023-02-27T00:35:08.776Z,0
2023-02-27T00:36:08.786Z,0
2023-02-27T00:37:08.441Z,0
2023-02-27T00:38:08.674Z,0
2023-02-27T00:39:08.640Z,0
2023-02-27T00:40:08.595Z,0
2023-02-27T00:41:08.562Z,0
2023-02-27T00:42:08.487Z,0
2023-02-27T00:43:08.469Z,0
2023-02-27T00:44:08.412Z,0
2023-02-27T00:45:08.390Z,0
2023-02-27T00:46:08.419Z,0
2023-02-27T00:47:08.316Z,0
2023-02-27T00:48:08.263Z,0
2023-02-27T00:49:08.296Z,0
2023-02-27T00:50:08.179Z,0
2023-02-27T00:51:08.172Z,0
2023-02-27T00:52:08.155Z,0
2023-02-27T00:53:08.072Z,0
2023-02-27T00:54:08.316Z,0
2023-02-27T00:55:08.015Z,0
2023-02-27T00:56:08.004Z,0
2023-02-27T00:57:07.957Z,0
2023-02-27T00:58:07.915Z,0
2023-02-27T00:59:07.863Z,0
2023-02-27T01:00:07.604Z,0
2023-02-27T01:01:08.145Z,0
2023-02-27T01:02:07.795Z,0
2023-02-27T01:03:07.704Z,0
2023-02-27T01:04:07.411Z,0
2023-02-27T01:05:07.659Z,0
2023-02-27T01:06:07.579Z,0
2023-02-27T01:07:07.534Z,0
2023-02-27T01:08:07.518Z,0
2023-02-27T01:09:07.466Z,0
2023-02-27T01:10:07.414Z,0
2023-02-27T01:11:07.424Z,0
2023-02-27T01:12:07.339Z,0
2023-02-27T01:13:07.336Z,0
2023-02-27T01:14:07.282Z,0
2023-02-27T01:15:07.014Z,0
2023-02-27T01:16:07.478Z,0
2023-02-27T01:17:07.194Z,0
2023-02-27T01:18:07.248Z,0
2023-02-27T01:19:07.069Z,0
2023-02-27T01:20:07.129Z,0
2023-02-27T01:21:06.997Z,0
2023-02-27T01:22:06.761Z,0
2023-02-27T01:23:06.927Z,0
2023-02-27T01:24:06.909Z,0
2023-02-27T01:25:06.838Z,0
2023-02-27T01:26:07.847Z,0
2023-02-27T01:27:06.770Z,0
2023-02-27T01:28:06.727Z,0
2023-02-27T01:29:08.842Z,0
2023-02-27T01:30:06.629Z,0
2023-02-27T01:31:06.772Z,0
2023-02-27T01:32:07.315Z,0
2023-02-27T01:33:06.553Z,0
2023-02-27T01:34:06.569Z,0
2023-02-27T01:35:06.450Z,0
2023-02-27T01:36:06.415Z,0
2023-02-27T01:37:06.384Z,0
2023-02-27T01:38:06.360Z,0
2023-02-27T01:39:06.354Z,0
2023-02-27T01:40:06.296Z,0
2023-02-27T01:41:06.224Z,0
2023-02-27T01:42:06.178Z,0
2023-02-27T01:43:06.146Z,0
2023-02-27T01:44:06.163Z,0
2023-02-27T01:45:06.107Z,0
2023-02-27T01:46:06.288Z,0
2023-02-27T01:47:06.013Z,0
2023-02-27T01:48:05.939Z,0
2023-02-27T01:49:05.937Z,0
2023-02-27T01:50:05.960Z,0
2023-02-27T01:51:05.836Z,0
2023-02-27T01:52:05.792Z,0
2023-02-27T01:53:05.761Z,0
2023-02-27T01:54:05.744Z,0
2023-02-27T01:55:05.695Z,0
2023-02-27T01:56:05.764Z,0
2023-02-27T01:57:05.595Z,0
2023-02-27T01:58:05.557Z,0
2023-02-27T01:59:05.535Z,0
2023-02-27T02:00:05.471Z,0
2023-02-27T02:01:05.740Z,0
2023-02-27T02:02:05.611Z,0
2023-02-27T02:03:05.365Z,0
2023-02-27T02:04:05.341Z,0
2023-02-27T02:05:05.306Z,0
2023-02-27T02:06:05.329Z,0
2023-02-27T02:07:05.276Z,0
2023-02-27T02:08:04.936Z,0
2023-02-27T02:09:04.894Z,0
2023-02-27T02:10:05.100Z,0
2023-02-27T02:11:05.054Z,0
2023-02-27T02:12:05.072Z,0
2023-02-27T02:13:04.742Z,0
2023-02-27T02:14:04.968Z,0
2023-02-27T02:15:04.939Z,0
2023-02-27T02:16:04.616Z,0
2023-02-27T02:17:05.076Z,0
2023-02-27T02:18:04.540Z,0
2023-02-27T02:19:04.739Z,0
2023-02-27T02:20:04.792Z,0
2023-02-27T02:21:06.798Z,0
2023-02-27T02:22:04.700Z,0
2023-02-27T02:23:04.650Z,0
2023-02-27T02:24:04.562Z,0
2023-02-27T02:25:04.511Z,0
2023-02-27T02:26:04.470Z,0
2023-02-27T02:27:04.437Z,0
2023-02-27T02:28:04.413Z,0
2023-02-27T02:29:04.346Z,0
2023-02-27T02:30:04.341Z,0
2023-02-27T02:31:05.008Z,0
2023-02-27T02:32:04.939Z,0
2023-02-27T02:33:04.278Z,0
2023-02-27T02:34:04.152Z,0
2023-02-27T02:35:04.111Z,0
2023-02-27T02:36:04.073Z,0
2023-02-27T02:37:04.054Z,0
2023-02-27T02:38:04.085Z,0
2023-02-27T02:39:03.964Z,0
2023-02-27T02:40:03.933Z,0
2023-02-27T02:41:03.664Z,0
2023-02-27T02:42:03.841Z,0
2023-02-27T02:43:03.802Z,0
2023-02-27T02:44:03.829Z,0
2023-02-27T02:45:03.725Z,0
2023-02-27T02:46:03.857Z,0
2023-02-27T02:47:03.649Z,0
2023-02-27T02:48:03.637Z,0
2023-02-27T02:49:03.617Z,0
2023-02-27T02:50:03.558Z,0
2023-02-27T02:51:03.492Z,0
2023-02-27T02:52:03.250Z,0
2023-02-27T02:53:06.254Z,0
2023-02-27T02:54:03.549Z,0
2023-02-27T02:55:03.345Z,0
2023-02-27T02:56:03.328Z,0
2023-02-27T02:57:03.262Z,0
2023-02-27T02:58:03.229Z,0
2023-02-27T02:59:02.994Z,0
2023-02-27T03:00:03.176Z,0
2023-02-27T03:01:03.190Z,0
2023-02-27T03:02:02.896Z,0
2023-02-27T03:03:03.039Z,0
2023-02-27T03:04:03.023Z,0
2023-02-27T03:05:03.039Z,0
2023-02-27T03:06:02.900Z,0
2023-02-27T03:07:02.891Z,0
2023-02-27T03:08:02.966Z,0
2023-02-27T03:09:02.835Z,0
2023-02-27T03:10:02.962Z,0
2023-02-27T03:11:02.744Z,0
2023-02-27T03:12:02.460Z,0
2023-02-27T03:13:04.310Z,0
2023-02-27T03:14:02.827Z,0
2023-02-27T03:15:02.345Z,0
2023-02-27T03:16:02.599Z,0
2023-02-27T03:17:02.483Z,0
2023-02-27T03:18:02.454Z,0
2023-02-27T03:19:02.578Z,0
2023-02-27T03:20:02.448Z,0
2023-02-27T03:21:02.339Z,0
2023-02-27T03:22:02.334Z,0
2023-02-27T03:23:02.260Z,0
2023-02-27T03:24:02.201Z,0
2023-02-27T03:25:02.231Z,0
2023-02-27T03:26:05.249Z,0
2023-02-27T03:27:02.087Z,0
2023-02-27T03:28:02.068Z,0
2023-02-27T03:29:02.023Z,0
2023-02-27T03:30:01.765Z,0
2023-02-27T03:31:02.542Z,0
2023-02-27T03:32:02.323Z,0
2023-02-27T03:33:01.893Z,0
2023-02-27T03:34:03.750Z,0
2023-02-27T03:35:01.764Z,0
2023-02-27T03:36:01.748Z,0
2023-02-27T03:37:01.746Z,0
2023-02-27T03:38:01.641Z,0
2023-02-27T03:39:01.593Z,0
2023-02-27T03:40:01.578Z,0
2023-02-27T03:41:01.625Z,0
2023-02-27T03:42:01.543Z,0
2023-02-27T03:43:01.447Z,0
2023-02-27T03:44:01.416Z,0
2023-02-27T03:45:02.000Z,0
2023-02-27T03:46:01.363Z,0
2023-02-27T03:47:01.300Z,0
2023-02-27T03:48:01.330Z,0
2023-02-27T03:49:01.256Z,0
2023-02-27T03:50:01.246Z,0
2023-02-27T03:51:01.140Z,0
2023-02-27T03:52:00.888Z,0
2023-02-27T03:53:01.092Z,0
2023-02-27T03:54:01.056Z,0
2023-02-27T03:55:00.998Z,0
2023-02-27T03:56:00.934Z,0
2023-02-27T03:57:00.925Z,0
2023-02-27T03:58:00.919Z,0
2023-02-27T03:59:00.826Z,0
2023-02-27T04:00:00.788Z,0
2023-02-27T04:01:00.745Z,0
2023-02-27T04:02:01.133Z,0
2023-02-27T04:03:01.032Z,0
2023-02-27T04:04:00.666Z,0
2023-02-27T04:05:00.598Z,0
2023-02-27T04:06:00.577Z,0
2023-02-27T04:07:00.513Z,0
2023-02-27T04:08:00.465Z,0
2023-02-27T04:09:00.473Z,0
2023-02-27T04:10:00.399Z,0
2023-02-27T04:11:00.105Z,0
2023-02-27T04:12:00.348Z,0
2023-02-27T04:13:00.310Z,0
2023-02-27T04:14:00.432Z,0
2023-02-27T04:15:00.190Z,0
2023-02-27T04:16:00.373Z,0
2023-02-27T04:17:00.123Z,0
2023-02-27T04:18:00.105Z,0
2023-02-27T04:19:01.753Z,0
2023-02-27T04:20:00.058Z,0
2023-02-27T04:20:59.978Z,0
2023-02-27T04:21:59.958Z,0
2023-02-27T04:22:59.877Z,0
2023-02-27T04:23:59.932Z,0
2023-02-27T04:24:59.982Z,0
2023-02-27T04:25:59.767Z,0
2023-02-27T04:26:59.731Z,0
2023-02-27T04:27:59.696Z,0
2023-02-27T04:28:59.691Z,0
2023-02-27T04:29:59.780Z,0
2023-02-27T04:30:59.872Z,0
2023-02-27T04:32:00.628Z,0
2023-02-27T04:32:59.642Z,0
2023-02-27T04:33:59.480Z,0
2023-02-27T04:34:59.418Z,0
2023-02-27T04:35:59.382Z,0
2023-02-27T04:36:59.337Z,0
2023-02-27T04:37:59.378Z,0
2023-02-27T04:38:59.297Z,0
2023-02-27T04:39:59.234Z,0
2023-02-27T04:40:59.208Z,0
2023-02-27T04:41:59.190Z,0
2023-02-27T04:42:59.098Z,0
2023-02-27T04:43:59.071Z,0
2023-02-27T04:44:59.048Z,0
2023-02-27T04:45:59.476Z,0
2023-02-27T04:46:59.000Z,0
2023-02-27T04:47:58.945Z,0
2023-02-27T04:48:58.886Z,0
2023-02-27T04:49:58.833Z,0
2023-02-27T04:50:58.826Z,0
2023-02-27T04:51:58.800Z,0
2023-02-27T04:52:58.715Z,0
2023-02-27T04:53:58.678Z,0
2023-02-27T04:54:58.653Z,0
2023-02-27T04:55:58.593Z,0
2023-02-27T04:56:58.596Z,0
2023-02-27T04:57:58.624Z,0
2023-02-27T04:58:58.497Z,0
2023-02-27T04:59:58.460Z,0
2023-02-27T05:00:58.189Z,0
2023-02-27T05:01:59.367Z,0
2023-02-27T05:02:58.551Z,0
2023-02-27T05:04:00.347Z,0
2023-02-27T05:04:58.241Z,0
2023-02-27T05:05:58.219Z,0
2023-02-27T05:06:58.212Z,0
2023-02-27T05:07:58.156Z,0
2023-02-27T05:08:58.242Z,0
2023-02-27T05:09:58.041Z,0
2023-02-27T05:10:58.001Z,0
2023-02-27T05:11:57.958Z,0
2023-02-27T05:12:58.005Z,0
2023-02-27T05:13:57.874Z,0
2023-02-27T05:14:57.850Z,0
2023-02-27T05:15:58.149Z,0
2023-02-27T05:16:57.872Z,0
2023-02-27T05:17:57.888Z,0
2023-02-27T05:18:57.692Z,0
2023-02-27T05:19:57.658Z,0
2023-02-27T05:20:57.658Z,0
2023-02-27T05:21:57.574Z,0
2023-02-27T05:22:57.535Z,0
2023-02-27T05:23:57.658Z,0
2023-02-27T05:24:57.492Z,0
2023-02-27T05:25:57.428Z,0
2023-02-27T05:26:57.401Z,0
2023-02-27T05:27:57.320Z,0
2023-02-27T05:28:57.328Z,0
2023-02-27T05:29:56.793Z,0
2023-02-27T05:30:57.365Z,0
2023-02-27T05:31:58.016Z,0
2023-02-27T05:32:57.149Z,0
2023-02-27T05:33:57.131Z,0
2023-02-27T05:34:57.067Z,0
2023-02-27T05:35:57.303Z,0
2023-02-27T05:36:56.974Z,0
2023-02-27T05:37:56.953Z,0
2023-02-27T05:38:56.878Z,0
2023-02-27T05:39:56.888Z,0
2023-02-27T05:40:56.815Z,0
2023-02-27T05:41:56.779Z,0
2023-02-27T05:42:56.783Z,0
2023-02-27T05:43:56.727Z,0
2023-02-27T05:44:56.745Z,0
2023-02-27T05:45:56.777Z,0
2023-02-27T05:46:56.582Z,0
2023-02-27T05:47:56.538Z,0
2023-02-27T05:48:56.271Z,0
2023-02-27T05:49:56.517Z,0
2023-02-27T05:50:56.410Z,0
2023-02-27T05:51:57.253Z,0
2023-02-27T05:52:56.330Z,0
2023-02-27T05:53:56.318Z,0
2023-02-27T05:54:56.290Z,0
2023-02-27T05:55:56.254Z,0
2023-02-27T05:56:56.172Z,0
2023-02-27T05:57:56.148Z,0
2023-02-27T05:58:56.226Z,0
2023-02-27T05:59:56.078Z,0
2023-02-27T06:00:55.819Z,0
2023-02-27T06:01:56.208Z,0
2023-02-27T06:02:55.937Z,0
2023-02-27T06:03:55.965Z,0
2023-02-27T06:04:55.941Z,0
2023-02-27T06:05:55.718Z,0
2023-02-27T06:06:55.827Z,0
2023-02-27T06:07:55.767Z,0
2023-02-27T06:08:55.721Z,0
2023-02-27T06:09:55.739Z,0
2023-02-27T06:10:55.618Z,5
2023-02-27T06:11:55.641Z,5
2023-02-27T06:12:55.559Z,5
2023-02-27T06:13:55.284Z,5
2023-02-27T06:14:55.485Z,5
2023-02-27T06:15:55.464Z,5
2023-02-27T06:16:55.759Z,10
2023-02-27T06:17:55.381Z,10
2023-02-27T06:18:55.317Z,10
2023-02-27T06:19:55.280Z,10
2023-02-27T06:20:55.301Z,10
2023-02-27T06:21:55.252Z,15
2023-02-27T06:22:55.150Z,15
2023-02-27T06:23:55.112Z,15
2023-02-27T06:24:55.069Z,20
2023-02-27T06:25:55.033Z,20
2023-02-27T06:26:55.002Z,20
2023-02-27T06:27:54.966Z,25
2023-02-27T06:28:54.930Z,25
2023-02-27T06:29:54.859Z,30
2023-02-27T06:30:56.303Z,30
2023-02-27T06:31:55.177Z,35
2023-02-27T06:32:54.813Z,35
2023-02-27T06:33:54.707Z,35
2023-02-27T06:34:54.668Z,40
2023-02-27T06:35:55.017Z,40
2023-02-27T06:36:54.602Z,40
2023-02-27T06:37:54.610Z,45
2023-02-27T06:38:54.504Z,45
2023-02-27T06:39:54.488Z,45
2023-02-27T06:40:54.448Z,50
2023-02-27T06:41:54.376Z,50
2023-02-27T06:42:54.391Z,50
2023-02-27T06:43:54.355Z,55
2023-02-27T06:44:54.275Z,55
2023-02-27T06:45:54.122Z,60
2023-02-27T06:46:54.188Z,60
2023-02-27T06:47:54.229Z,60
2023-02-27T06:48:54.142Z,60
2023-02-27T06:49:53.853Z,65
2023-02-27T06:50:54.047Z,65
2023-02-27T06:51:54.373Z,65
2023-02-27T06:52:53.997Z,70
2023-02-27T06:53:54.199Z,70
2023-02-27T06:54:53.879Z,70
2023-02-27T06:55:53.840Z,75
2023-02-27T06:56:53.839Z,75
2023-02-27T06:57:53.771Z,75
2023-02-27T06:58:53.923Z,80
2023-02-27T06:59:53.689Z,80
2023-02-27T07:00:53.699Z,80
2023-02-27T07:01:53.763Z,80
2023-02-27T07:02:53.556Z,85
2023-02-27T07:03:53.719Z,85
2023-02-27T07:04:53.984Z,85
2023-02-27T07:05:54.302Z,90
2023-02-27T07:07:46.079Z,90
2023-02-27T07:09:15.984Z,95
2023-02-27T07:09:55.896Z,95
2023-02-27T07:10:55.871Z,95
2023-02-27T07:11:55.830Z,100
2023-02-27T07:12:55.861Z,100
2023-02-27T07:13:55.750Z,100
2023-02-27T07:14:55.688Z,100
2023-02-27T07:15:55.924Z,105
2023-02-27T07:16:56.031Z,105
2023-02-27T07:17:56.271Z,105
2023-02-27T07:18:56.896Z,105
2023-02-27T07:19:55.579Z,110
2023-02-27T07:20:55.490Z,110
2023-02-27T07:21:55.457Z,110
2023-02-27T07:22:55.390Z,110
2023-02-27T07:23:55.428Z,115
2023-02-27T07:24:55.388Z,115
2023-02-27T07:25:55.327Z,115
2023-02-27T07:26:55.228Z,115
2023-02-27T07:27:54.982Z,120
2023-02-27T07:28:55.243Z,120
2023-02-27T07:29:55.124Z,120
2023-02-27T07:30:55.316Z,120
2023-02-27T07:31:55.328Z,125
2023-02-27T07:32:55.002Z,125
2023-02-27T07:33:54.969Z,125
2023-02-27T07:34:55.022Z,125
2023-02-27T07:35:55.126Z,125
2023-02-27T07:36:54.635Z,130
2023-02-27T07:37:54.835Z,130
2023-02-27T07:38:54.798Z,130
2023-02-27T07:39:54.798Z,130
2023-02-27T07:40:54.771Z,130
2023-02-27T07:41:54.686Z,135
2023-02-27T07:42:57.642Z,135
2023-02-27T07:43:54.587Z,135
2023-02-27T07:44:54.904Z,135
2023-02-27T07:45:54.501Z,135
2023-02-27T07:46:55.167Z,135
2023-02-27T07:47:54.485Z,140
2023-02-27T07:48:54.419Z,140
2023-02-27T07:49:54.362Z,140
2023-02-27T07:50:53.829Z,140
2023-02-27T07:51:54.387Z,140
2023-02-27T07:52:54.278Z,145
2023-02-27T07:53:53.965Z,145
2023-02-27T07:54:54.190Z,145
2023-02-27T07:55:54.175Z,145
2023-02-27T07:56:54.183Z,145
2023-02-27T07:57:54.052Z,145
2023-02-27T07:58:54.008Z,150
2023-02-27T07:59:54.111Z,150
2023-02-27T08:00:53.708Z,150
2023-02-27T08:01:53.902Z,150
2023-02-27T08:02:54.092Z,150
2023-02-27T08:03:53.858Z,150
2023-02-27T08:04:55.854Z,150
2023-02-27T08:05:54.923Z,155
2023-02-27T08:06:53.713Z,155
2023-02-27T08:07:53.210Z,155
2023-02-27T08:08:55.340Z,155
2023-02-27T08:09:53.592Z,155
2023-02-27T08:10:53.599Z,155
2023-02-27T08:11:58.279Z,155
2023-02-27T08:12:53.278Z,155
2023-02-27T08:14:10.980Z,160
2023-02-27T08:14:53.414Z,160
2023-02-27T08:15:53.566Z,160
2023-02-27T08:16:53.334Z,160
2023-02-27T08:17:53.284Z,160
2023-02-27T08:18:53.311Z,160
2023-02-27T08:19:53.273Z,160
2023-02-27T08:20:53.186Z,160
2023-02-27T08:21:53.172Z,160
2023-02-27T08:22:52.608Z,165
2023-02-27T08:23:52.872Z,165
2023-02-27T08:24:53.008Z,165
2023-02-27T08:25:53.017Z,165
2023-02-27T08:26:52.934Z,165
2023-02-27T08:27:52.981Z,165
2023-02-27T08:28:52.941Z,165
2023-02-27T08:29:52.713Z,165
2023-02-27T08:30:52.787Z,165
2023-02-27T08:31:54.325Z,170
2023-02-27T08:32:52.725Z,170
2023-02-27T08:34:10.471Z,170
2023-02-27T08:34:52.661Z,170
2023-02-27T08:35:52.876Z,170
2023-02-27T08:36:52.787Z,170
2023-02-27T08:37:52.550Z,175
2023-02-27T08:38:52.593Z,175
2023-02-27T08:39:52.092Z,175
2023-02-27T08:40:52.162Z,175
2023-02-27T08:41:52.362Z,175
2023-02-27T08:42:52.348Z,175
2023-02-27T08:43:52.456Z,175
2023-02-27T08:44:52.382Z,175
2023-02-27T08:45:52.890Z,180
2023-02-27T08:46:52.177Z,180
2023-02-27T08:47:52.181Z,180
2023-02-27T08:48:51.883Z,180
2023-02-27T08:49:52.095Z,180
2023-02-27T08:50:52.055Z,180
2023-02-27T08:51:52.037Z,180
2023-02-27T08:52:51.724Z,180
2023-02-27T08:53:51.971Z,185
2023-02-27T08:54:51.881Z,185
2023-02-27T08:55:51.948Z,185
2023-02-27T08:56:51.836Z,185
2023-02-27T08:57:51.696Z,185
2023-02-27T08:58:55.115Z,185
2023-02-27T08:59:53.392Z,185
2023-02-27T09:00:55.027Z,185
2023-02-27T09:01:53.061Z,185
2023-02-27T09:02:53.974Z,185
2023-02-27T09:03:53.524Z,185
2023-02-27T09:04:53.914Z,185
2023-02-27T09:05:51.843Z,185
2023-02-27T09:06:51.479Z,185
2023-02-27T09:07:51.193Z,185
2023-02-27T09:08:51.392Z,185
2023-02-27T09:09:53.791Z,185
2023-02-27T09:10:51.090Z,185
2023-02-27T09:11:51.316Z,185
2023-02-27T09:12:51.225Z,185
2023-02-27T09:13:51.202Z,185
2023-02-27T09:14:50.953Z,185
2023-02-27T09:15:50.914Z,190
2023-02-27T09:16:51.157Z,185
2023-02-27T09:17:51.051Z,190
2023-02-27T09:18:50.749Z,190
2023-02-27T09:19:51.048Z,190
2023-02-27T09:20:50.447Z,190
2023-02-27T09:21:50.668Z,190
2023-02-27T09:22:50.891Z,190
2023-02-27T09:23:50.876Z,195
2023-02-27T09:24:50.756Z,190
2023-02-27T09:25:50.500Z,190
2023-02-27T09:26:56.803Z,190
2023-02-27T09:27:50.681Z,190
2023-02-27T09:28:50.653Z,190
2023-02-27T09:29:50.586Z,190
2023-02-27T09:30:50.562Z,190
2023-02-27T09:31:50.487Z,190
2023-02-27T09:32:51.214Z,190
2023-02-27T09:33:50.434Z,190
2023-02-27T09:34:50.440Z,195
2023-02-27T09:35:50.595Z,195
2023-02-27T09:36:50.328Z,195
2023-02-27T09:37:50.071Z,195
2023-02-27T09:38:50.974Z,195
2023-02-27T09:39:53.098Z,195
2023-02-27T09:40:50.210Z,195
2023-02-27T09:41:50.148Z,195
2023-02-27T09:42:50.598Z,195
2023-02-27T09:43:49.876Z,195
2023-02-27T09:44:56.396Z,195
2023-02-27T09:45:50.215Z,200
2023-02-27T09:46:50.003Z,200
2023-02-27T09:47:49.513Z,200
2023-02-27T09:48:49.953Z,200
2023-02-27T09:49:49.856Z,200
2023-02-27T09:50:49.946Z,200
2023-02-27T09:51:50.980Z,200
2023-02-27T09:52:49.500Z,205
2023-02-27T09:53:49.715Z,200
2023-02-27T09:54:51.742Z,200
2023-02-27T09:55:49.748Z,200
2023-02-27T09:56:49.360Z,200
2023-02-27T09:57:49.325Z,200
2023-02-27T09:58:49.562Z,200
2023-02-27T09:59:50.354Z,200
2023-02-27T10:00:49.494Z,200
2023-02-27T10:01:49.205Z,205
2023-02-27T10:02:49.760Z,205
2023-02-27T10:03:49.321Z,205
2023-02-27T10:04:49.363Z,210
2023-02-27T10:05:49.303Z,210
2023-02-27T10:06:49.252Z,205
2023-02-27T10:07:49.004Z,205
2023-02-27T10:08:49.209Z,210
2023-02-27T10:09:49.144Z,210
2023-02-27T10:10:48.647Z,210
2023-02-27T10:11:48.874Z,210
2023-02-27T10:12:48.798Z,215
2023-02-27T10:13:49.025Z,220
2023-02-27T10:14:48.978Z,225
2023-02-27T10:15:48.984Z,225
2023-02-27T10:16:49.018Z,220
2023-02-27T10:17:48.861Z,235
2023-02-27T10:18:48.901Z,255
2023-02-27T10:19:48.908Z,275
2023-02-27T10:20:48.793Z,305
2023-02-27T10:21:48.517Z,280
2023-02-27T10:22:48.468Z,260
2023-02-27T10:23:48.420Z,260
2023-02-27T10:24:48.598Z,275
2023-02-27T10:25:48.342Z,280
2023-02-27T10:26:48.560Z,265
2023-02-27T10:27:48.558Z,260
2023-02-27T10:28:47.986Z,265
2023-02-27T10:29:48.246Z,280
2023-02-27T10:30:48.200Z,290
2023-02-27T10:31:48.728Z,300
2023-02-27T10:32:48.081Z,310
2023-02-27T10:33:48.172Z,355
2023-02-27T10:34:48.095Z,375
2023-02-27T10:35:48.707Z,370
2023-02-27T10:36:48.388Z,340
2023-02-27T10:37:48.258Z,305
2023-02-27T10:38:48.659Z,335
2023-02-27T10:39:48.102Z,380
2023-02-27T10:40:47.812Z,365
2023-02-27T10:41:49.584Z,375
2023-02-27T10:42:50.544Z,380
2023-02-27T10:43:47.996Z,405
2023-02-27T10:44:47.921Z,435
2023-02-27T10:45:48.024Z,435
2023-02-27T10:46:49.982Z,465
2023-02-27T10:47:47.754Z,470
2023-02-27T10:48:47.555Z,475
2023-02-27T10:49:47.768Z,495
2023-02-27T10:50:47.517Z,510
2023-02-27T10:51:48.202Z,480
2023-02-27T10:52:50.334Z,485
2023-02-27T10:53:47.382Z,490
2023-02-27T10:54:47.337Z,460
2023-02-27T10:55:47.567Z,375
2023-02-27T10:56:47.526Z,365
2023-02-27T10:57:47.541Z,345
2023-02-27T10:58:47.224Z,390
2023-02-27T10:59:47.794Z,445
2023-02-27T11:00:47.400Z,425
2023-02-27T11:01:47.479Z,360
2023-02-27T11:02:47.107Z,355
2023-02-27T11:03:50.601Z,335
2023-02-27T11:04:47.796Z,340
2023-02-27T11:05:47.290Z,345
2023-02-27T11:06:47.211Z,385
2023-02-27T11:07:47.241Z,400
2023-02-27T11:08:48.465Z,330
2023-02-27T11:09:46.855Z,310
2023-02-27T11:10:47.089Z,280
2023-02-27T11:11:47.176Z,280
2023-02-27T11:12:47.001Z,290
2023-02-27T11:13:47.020Z,295
2023-02-27T11:14:46.932Z,315
2023-02-27T11:15:47.245Z,325
2023-02-27T11:16:46.855Z,340
2023-02-27T11:17:46.787Z,360
2023-02-27T11:18:46.836Z,400
2023-02-27T11:19:46.813Z,460
2023-02-27T11:20:46.748Z,440
2023-02-27T11:21:46.692Z,405
2023-02-27T11:22:46.713Z,350
2023-02-27T11:23:46.661Z,330
2023-02-27T11:24:46.377Z,335
2023-02-27T11:25:46.356Z,395
2023-02-27T11:26:46.564Z,420
2023-02-27T11:27:46.257Z,395
2023-02-27T11:28:46.502Z,365
2023-02-27T11:29:46.195Z,315
2023-02-27T11:30:46.645Z,310
2023-02-27T11:31:46.593Z,320
2023-02-27T11:32:46.324Z,355
2023-02-27T11:33:46.754Z,330
2023-02-27T11:34:46.768Z,335
2023-02-27T11:35:46.624Z,370
2023-02-27T11:36:46.225Z,355
2023-02-27T11:37:46.223Z,325
2023-02-27T11:38:45.944Z,320
2023-02-27T11:39:46.273Z,325
2023-02-27T11:40:46.142Z,300
2023-02-27T11:41:46.036Z,295
2023-02-27T11:42:46.012Z,305
2023-02-27T11:43:45.989Z,320
2023-02-27T11:45:01.276Z,310
2023-02-27T11:46:54.456Z,300
2023-02-27T11:48:08.553Z,315
2023-02-27T11:49:04.266Z,330
2023-02-27T11:50:04.242Z,355
2023-02-27T11:51:03.988Z,335
2023-02-27T11:52:04.164Z,365
2023-02-27T11:53:04.134Z,385
2023-02-27T11:54:04.130Z,385
2023-02-27T11:55:07.983Z,375
2023-02-27T11:56:05.351Z,385
2023-02-27T11:57:03.998Z,380
2023-02-27T11:58:03.960Z,375
2023-02-27T11:59:03.931Z,375
2023-02-27T12:00:03.890Z,405
2023-02-27T12:01:03.892Z,365
2023-02-27T12:02:03.847Z,360
2023-02-27T12:03:04.193Z,335
2023-02-27T12:04:04.314Z,325
2023-02-27T12:05:03.723Z,335
2023-02-27T12:06:03.686Z,360
2023-02-27T12:07:03.443Z,390
2023-02-27T12:08:03.675Z,420
2023-02-27T12:09:03.585Z,425
2023-02-27T12:10:03.620Z,430
2023-02-27T12:11:20.330Z,420
2023-02-27T12:12:03.513Z,405
2023-02-27T12:13:03.482Z,385
2023-02-27T12:14:05.419Z,375
2023-02-27T12:15:03.911Z,370
2023-02-27T12:16:03.318Z,370
2023-02-27T12:17:03.329Z,380
2023-02-27T12:18:03.290Z,390
2023-02-27T12:19:03.362Z,390
2023-02-27T12:20:03.228Z,385
2023-02-27T12:21:03.215Z,375
2023-02-27T12:22:03.160Z,360
2023-02-27T12:23:03.162Z,355
2023-02-27T12:24:03.116Z,350
2023-02-27T12:25:02.891Z,355
2023-02-27T12:26:03.088Z,390
2023-02-27T12:27:03.072Z,425
2023-02-27T12:28:02.974Z,445
2023-02-27T12:29:02.692Z,455
2023-02-27T12:30:02.901Z,460
2023-02-27T12:31:02.971Z,465
2023-02-27T12:32:03.585Z,465
2023-02-27T12:33:02.799Z,450
2023-02-27T12:34:02.790Z,420
2023-02-27T12:35:02.550Z,395
2023-02-27T12:36:03.162Z,390
2023-02-27T12:37:02.488Z,395
2023-02-27T12:38:02.444Z,405
2023-02-27T12:39:02.633Z,420
2023-02-27T12:40:02.576Z,435
2023-02-27T12:41:02.547Z,465
2023-02-27T12:42:04.751Z,480
2023-02-27T12:43:02.259Z,485
2023-02-27T12:44:02.666Z,475
2023-02-27T12:45:03.032Z,475
2023-02-27T12:46:03.532Z,470
2023-02-27T12:47:02.368Z,460
2023-02-27T12:48:02.157Z,445
2023-02-27T12:49:02.321Z,435
2023-02-27T12:50:03.416Z,430
2023-02-27T12:51:04.209Z,430
2023-02-27T12:52:02.204Z,440
2023-02-27T12:53:01.924Z,460
2023-02-27T12:54:01.890Z,475
2023-02-27T12:55:04.138Z,475
2023-02-27T12:56:02.066Z,465
2023-02-27T12:57:01.769Z,435
2023-02-27T12:58:01.841Z,405
2023-02-27T12:59:01.745Z,360
2023-02-27T13:00:01.916Z,345
2023-02-27T13:01:02.399Z,345
2023-02-27T13:02:01.891Z,385
2023-02-27T13:03:01.863Z,385
2023-02-27T13:04:02.067Z,410
2023-02-27T13:05:01.286Z,390
2023-02-27T13:06:01.758Z,350
2023-02-27T13:07:01.723Z,310
2023-02-27T13:08:01.664Z,285
2023-02-27T13:09:01.665Z,305
2023-02-27T13:10:01.609Z,295
2023-02-27T13:11:01.633Z,295
2023-02-27T13:12:01.544Z,295
2023-02-27T13:13:01.495Z,295
2023-02-27T13:14:01.524Z,295
2023-02-27T13:15:01.490Z,295
2023-02-27T13:16:01.068Z,295
2023-02-27T13:17:01.553Z,305
2023-02-27T13:18:01.343Z,310
2023-02-27T13:19:01.330Z,315
2023-02-27T13:20:01.304Z,325
2023-02-27T13:21:01.299Z,340
2023-02-27T13:22:01.437Z,360
2023-02-27T13:23:01.224Z,380
2023-02-27T13:24:00.909Z,420
2023-02-27T13:25:01.140Z,450
2023-02-27T13:26:00.634Z,495
2023-02-27T13:27:01.222Z,535
2023-02-27T13:28:01.073Z,530
2023-02-27T13:29:00.847Z,510
2023-02-27T13:30:01.047Z,480
2023-02-27T13:31:00.709Z,450
2023-02-27T13:32:01.280Z,415
2023-02-27T13:33:01.385Z,440
2023-02-27T13:34:00.586Z,435
2023-02-27T13:35:00.795Z,455
2023-02-27T13:36:01.096Z,465
2023-02-27T13:37:00.724Z,445
2023-02-27T13:38:00.739Z,385
2023-02-27T13:39:00.702Z,350
2023-02-27T13:40:00.434Z,330
2023-02-27T13:41:00.362Z,320
2023-02-27T13:42:00.566Z,300
2023-02-27T13:43:00.339Z,295
2023-02-27T13:44:02.265Z,290
2023-02-27T13:45:00.573Z,295
2023-02-27T13:46:00.739Z,300
2023-02-27T13:47:00.730Z,295
2023-02-27T13:48:01.852Z,290
2023-02-27T13:48:59.954Z,280
2023-02-27T13:50:00.367Z,270
2023-02-27T13:51:00.303Z,265
2023-02-27T13:52:00.013Z,260
2023-02-27T13:53:00.220Z,260
2023-02-27T13:54:00.192Z,265
2023-02-27T13:55:16.839Z,260
2023-02-27T13:56:00.154Z,260
2023-02-27T13:56:59.636Z,260
2023-02-27T13:58:00.080Z,275
2023-02-27T13:59:02.620Z,310
2023-02-27T14:00:00.004Z,340
2023-02-27T14:01:00.077Z,355
2023-02-27T14:02:00.050Z,345
2023-02-27T14:03:09.442Z,340
2023-02-27T14:03:59.876Z,350
2023-02-27T14:05:01.590Z,380
2023-02-27T14:05:59.811Z,380
2023-02-27T14:06:59.765Z,410
2023-02-27T14:07:59.737Z,360
2023-02-27T14:09:17.997Z,345
2023-02-27T14:09:59.604Z,345
2023-02-27T14:10:59.701Z,355
2023-02-27T14:11:59.663Z,355
2023-02-27T14:12:59.314Z,360
2023-02-27T14:13:59.757Z,365
2023-02-27T14:14:59.293Z,375